TimeEST,TemperatureF,Dew PointF,Humidity,Sea Level PressureIn,VisibilityMPH,Wind Direction,Wind SpeedMPH,Gust SpeedMPH,PrecipitationIn,Events,Conditions,WindDirDegrees,DateUTC
12:15 AM,28.4,24.8,86,30.16,10.0,Calm,Calm,-,N/A,,Mostly Cloudy,0,2012-12-15 05:15:00
12:35 AM,28.4,24.8,86,30.17,10.0,SSW,3.5,-,N/A,,Overcast,200,2012-12-15 05:35:00
12:55 AM,28.4,24.8,86,30.18,10.0,Calm,Calm,-,N/A,,Overcast,0,2012-12-15 05:55:00
1:15 AM,28.4,24.8,86,30.18,10.0,Calm,Calm,-,N/A,,Overcast,0,2012-12-15 06:15:00
1:35 AM,28.4,24.8,86,30.18,10.0,Calm,Calm,-,N/A,,Overcast,0,2012-12-15 06:35:00
1:55 AM,28.4,24.8,86,30.18,10.0,Calm,Calm,-,N/A,,Overcast,0,2012-12-15 06:55:00
2:35 AM,30.2,24.8,80,30.20,10.0,Calm,Calm,-,N/A,,Overcast,0,2012-12-15 07:35:00
2:55 AM,30.2,26.6,86,30.20,10.0,Calm,Calm,-,N/A,,Overcast,0,2012-12-15 07:55:00
3:15 AM,30.2,26.6,86,30.21,10.0,Calm,Calm,-,N/A,,Overcast,0,2012-12-15 08:15:00
3:35 AM,30.2,26.6,86,30.21,10.0,Calm,Calm,-,N/A,,Overcast,0,2012-12-15 08:35:00
3:55 AM,30.2,26.6,86,30.21,10.0,Calm,Calm,-,N/A,,Overcast,0,2012-12-15 08:55:00
4:15 AM,30.2,26.6,86,30.21,10.0,Calm,Calm,-,N/A,,Overcast,0,2012-12-15 09:15:00
4:35 AM,30.2,26.6,86,30.22,10.0,Calm,Calm,-,N/A,,Overcast,0,2012-12-15 09:35:00
5:35 AM,30.2,26.6,86,30.26,10.0,Calm,Calm,-,N/A,,Overcast,0,2012-12-15 10:35:00
5:55 AM,30.2,26.6,86,30.26,10.0,Calm,Calm,-,N/A,,Overcast,0,2012-12-15 10:55:00
6:15 AM,30.2,26.6,86,30.27,10.0,Calm,Calm,-,N/A,,Overcast,0,2012-12-15 11:15:00
6:35 AM,30.2,26.6,86,30.27,10.0,Calm,Calm,-,N/A,,Overcast,0,2012-12-15 11:35:00
6:55 AM,30.2,26.6,86,30.27,10.0,Calm,Calm,-,N/A,,Mostly Cloudy,0,2012-12-15 11:55:00
7:15 AM,28.4,26.6,93,30.28,10.0,Calm,Calm,-,N/A,,Scattered Clouds,0,2012-12-15 12:15:00
7:35 AM,28.4,24.8,86,30.29,10.0,Calm,Calm,-,N/A,,Mostly Cloudy,0,2012-12-15 12:35:00
7:55 AM,28.4,24.8,86,30.29,10.0,Calm,Calm,-,N/A,,Scattered Clouds,0,2012-12-15 12:55:00
8:55 AM,33.8,24.8,70,30.30,10.0,NNW,5.8,-,N/A,,Clear,340,2012-12-15 13:55:00
9:15 AM,33.8,23.0,65,30.31,10.0,North,6.9,-,N/A,,Clear,360,2012-12-15 14:15:00
9:35 AM,33.8,23.0,65,30.31,10.0,NNW,6.9,-,N/A,,Clear,330,2012-12-15 14:35:00
9:55 AM,35.6,21.2,56,30.32,10.0,North,9.2,-,N/A,,Clear,360,2012-12-15 14:55:00
10:15 AM,35.6,21.2,56,30.32,10.0,North,9.2,-,N/A,,Clear,360,2012-12-15 15:15:00
10:55 AM,35.6,21.2,56,30.31,10.0,North,11.5,-,N/A,,Clear,360,2012-12-15 15:55:00
11:15 AM,35.6,19.4,52,30.30,10.0,North,10.4,-,N/A,,Clear,10,2012-12-15 16:15:00
11:35 AM,35.6,19.4,52,30.30,10.0,North,8.1,-,N/A,,Clear,10,2012-12-15 16:35:00
11:55 AM,35.6,19.4,52,30.29,10.0,North,10.4,-,N/A,,Clear,350,2012-12-15 16:55:00
12:15 PM,37.4,17.6,45,30.29,10.0,NW,10.4,-,N/A,,Clear,320,2012-12-15 17:15:00
12:35 PM,37.4,17.6,45,30.28,10.0,NNW,5.8,-,N/A,,Clear,330,2012-12-15 17:35:00
12:55 PM,37.4,17.6,45,30.28,10.0,NNW,9.2,-,N/A,,Clear,340,2012-12-15 17:55:00
1:15 PM,37.4,15.8,41,30.27,10.0,North,8.1,-,N/A,,Clear,350,2012-12-15 18:15:00
1:55 PM,37.4,15.8,41,30.26,10.0,NNW,5.8,-,N/A,,Clear,330,2012-12-15 18:55:00
2:15 PM,37.4,14.0,38,30.26,10.0,NNW,3.5,-,N/A,,Clear,330,2012-12-15 19:15:00
2:35 PM,37.4,14.0,38,30.26,10.0,North,4.6,-,N/A,,Clear,350,2012-12-15 19:35:00
2:55 PM,37.4,12.2,36,30.27,10.0,NNW,4.6,-,N/A,,Clear,340,2012-12-15 19:55:00
3:15 PM,37.4,12.2,36,30.27,10.0,Calm,Calm,-,N/A,,Clear,0,2012-12-15 20:15:00
3:35 PM,37.4,14.0,38,30.27,10.0,NNW,4.6,-,N/A,,Clear,330,2012-12-15 20:35:00
3:55 PM,35.6,14.0,41,30.27,10.0,Calm,Calm,-,N/A,,Clear,0,2012-12-15 20:55:00
5:15 PM,28.4,15.8,59,30.27,10.0,Calm,Calm,-,N/A,,Clear,0,2012-12-15 22:15:00
5:35 PM,26.6,15.8,64,30.28,10.0,Calm,Calm,-,N/A,,Clear,0,2012-12-15 22:35:00
5:55 PM,26.6,15.8,64,30.28,10.0,Calm,Calm,-,N/A,,Clear,0,2012-12-15 22:55:00
6:55 PM,26.6,15.8,64,30.30,10.0,Calm,Calm,-,N/A,,Clear,0,2012-12-15 23:55:00
7:35 PM,24.8,15.8,69,30.29,10.0,Calm,Calm,-,N/A,,Clear,0,2012-12-16 00:35:00
7:55 PM,24.8,15.8,69,30.30,10.0,Calm,Calm,-,N/A,,Clear,0,2012-12-16 00:55:00
8:15 PM,24.8,15.8,69,30.31,10.0,Calm,Calm,-,N/A,,Clear,0,2012-12-16 01:15:00
8:35 PM,24.8,15.8,69,30.31,10.0,Calm,Calm,-,N/A,,Clear,0,2012-12-16 01:35:00
8:55 PM,23.0,15.8,74,30.32,10.0,Calm,Calm,-,N/A,,Partly Cloudy,0,2012-12-16 01:55:00
9:35 PM,24.8,17.6,74,30.30,10.0,Calm,Calm,-,N/A,,Partly Cloudy,0,2012-12-16 02:35:00
9:55 PM,24.8,17.6,74,30.31,10.0,Calm,Calm,-,N/A,,Partly Cloudy,0,2012-12-16 02:55:00
10:15 PM,23.0,15.8,74,30.30,10.0,Calm,Calm,-,N/A,,Partly Cloudy,0,2012-12-16 03:15:00
10:35 PM,23.0,15.8,74,30.30,10.0,Calm,Calm,-,N/A,,Partly Cloudy,0,2012-12-16 03:35:00
10:55 PM,23.0,17.6,80,30.30,10.0,Calm,Calm,-,N/A,,Clear,0,2012-12-16 03:55:00
11:15 PM,24.8,17.6,74,30.30,10.0,Calm,Calm,-,N/A,,Clear,0,2012-12-16 04:15:00
11:35 PM,23.0,17.6,80,30.30,10.0,Calm,Calm,-,N/A,,Scattered Clouds,0,2012-12-16 04:35:00
11:55 PM,24.8,17.6,74,30.30,10.0,Calm,Calm,-,N/A,,Overcast,0,2012-12-16 04:55:00